Portsmouth, Rhode Island
Current Conditions -  °F | °C
As of 11:53 PM on Sunday 21 Dec 2014 (Local Time) from KUUU Reporting Station
Overcast Overcast  
Wind Chill: -4°   Ceiling: 5000
Heat Index:   Visibility: 10mi
Dew Point: -1°   Wind: 13mph
Humidity: 89%   Direction: 10°N
Pressure: 30.33"   Gusts: NA
Location:  41.6°N, 71.25°W
Report Text: KUUU 220453Z AUTO 01011KT 10SM OVC050 01/M01 A3033 RMK AO2 SLP269 T00111006 400280006
Loading
Personal Weather Stations






























Interactive Weather Map New forecast layout! Learn more

10-Day Weather Forecast

Advertisements
Track Severe Weather on mobile